AirNav   Everest Fuels
 
 1527 users online  

68AK Cowell's Heliport
Big Lake, Alaska, USA

GOING TO BIG LAKE?


FAA INFORMATION EFFECTIVE 10 SEPTEMBER 2020

Location

FAA Identifier: 68AK
Lat/Long: 61-30-59.6900N 149-55-51.8900W
61-30.994833N 149-55.864833W
61.5165806,-149.9310806
(estimated)
Elevation: 142 ft. / 43 m (estimated)
From city: 4 miles SW of BIG LAKE, AK
Time zone: UTC -8 (UTC -9 during Standard Time)
Zip code: 99652

Heliport Operations

Heliport use: Private use. Permission required prior to landing
Activation date: 07/2004
Control tower: no
ARTCC: ANCHORAGE CENTER
FSS: KENAI FLIGHT SERVICE STATION [907-283-7211]
Attendance: UNATNDD
Segmented circle: no

Heliport Communications

CTAF: 122.8
WX AWOS-3P at IYS (12 nm E): 135.25 (907-373-3801)
WX AWOS-3P at BCV (14 nm SE): 135.55 (907-688-0826)
WX ASOS at FRN (17 nm SE): 134.25
WX ASOS at MRI (18 nm S): 124.25 (907-271-5277)
WX ASOS at LHD (20 nm S): PHONE 907-245-5432

Nearby radio navigation aids

VOR radial/distance  VOR name  Freq  Var
BGQr143/3.3BIG LAKE VORTAC112.5019E
TEDr344/20.9ANCHORAGE VOR/DME113.1518E

 
NDB name  Hdg/Dist  Freq  Var  ID
CAMPBELL LAKE353/21.033816ECMQ -.-. -- --.-

Heliport Services

Runway Information

Helipad H1

Dimensions: 20 x 20 ft. / 6 x 6 m
Surface: wood
Traffic pattern: leftleft

Heliport Ownership and Management from official FAA records

Ownership: Privately-owned
Owner: FULLER A. COWELL
PO BOX 521043
BIG LAKE, AK 99652-1043
Phone (907) 227-7333
Manager: FULLER A. COWELL
PO BOX 521043
BIG LAKE, AK 99652-1043
Phone (907) 227-7333

Heliport Operational Statistics

Aircraft based on the field: 1
Helicopters: 1
    

Instrument Procedures

There are no published instrument procedures at 68AK.

Some nearby airports with instrument procedures:

PAGQ - Big Lake Airport (4 nm E)
PAWS - Wasilla Airport (12 nm E)
PAUO - Willow Airport (15 nm N)
PAED - Elmendorf Air Force Base (16 nm S)
PAFR - Bryant Army Airfield Heliport (17 nm SE)
PAMR - Merrill Field Airport (18 nm S)
 
Loc | Ops | Rwys | IFR | FBO | Links
Com | Nav | Svcs | Stats | Notes

Crowley
 
Area around 68AK (Cowell's Heliport)
 
Road maps at: MapQuest Bing Google
 
Aerial photo
No photo
 
Sectional chart

 
Airport distance calculator
Flying to Cowell's Heliport? Find the distance to fly.

From to 68AK

Sunrise and sunset
Times for 30-Sep-2020
 Local
(UTC-8)
 Zulu
(UTC)
Morning civil twilight07:2515:25
Sunrise08:0816:08
Sunset19:3103:31
Evening civil twilight20:1404:14

Current date and time
Zulu (UTC)  30-Sep-2020 20:19:38
Local (UTC-8)  30-Sep-2020 12:19:38
 
METAR
PABV 
13nm SE 
301956Z AUTO 03014KT 10SM RA OVC075 09/08 A2941 RMK AO2 SLP965 P0004 T00940083
PAED 
16nm S 
301956Z 34006KT 10SM -RA SCT006 BKN055 OVC070 10/09 A2940 RMK AO2A TWR VIS 3 SLP952 P0004 T00980090 $
PAFR 
17nm SE 
301958Z AUTO 00000KT 4SM -RA BR FEW004 OVC070 09/08 A2937 RMK AO2 SLP952 P0007 T00880084 $
PAMR 
18nm S 
301953Z 00000KT 9SM -RA BKN008 OVC060 10/08 A2940 RMK AO2 SLP957 P0006 T01000083
PALH 
20nm S 
301953Z 03008KT 10SM -RA FEW009 BKN060 OVC075 09/08 A2942 RMK AO2 SLP962 P0008 T00940083
PANC 
21nm S 
301953Z 02007KT 6SM -RA BR SCT050 OVC060 09/07 A2940 RMK AO2 SLP957 P0008 T00940072
PAAQ 
25nm E 
301953Z 36010KT 8SM -RA OVC070 10/07 A2943 RMK AO2 SLP969 P0007 T01000067
TAF
PAED 
16nm S 
300200Z 3002/0108 02008KT 9999 BKN200 QNH2982INS BECMG 3004/3005 02010KT 9999 BKN090 QNH2970INS BECMG 3008/3009 01012KT 9999 VCSH FEW030 BKN050 OVC100 620607 530006 QNH2947INS BECMG 3016/3017 01012G18KT 9000 -SHRA FEW015 BKN040 OVC100 620508 520006 QNH2939INS BECMG 3023/3024 04009KT 9999 NSW BKN050 BKN100 620506 QNH2940INS TX13/0100Z TN06/3016Z
NOTAMs
Click for the latest NOTAMs
NOTAMs are issued by the DoD/FAA and will open in a separate window not controlled by AirNav.

 

 
 

Would you like to see your business listed on this page?

 If your business provides an interesting product or service to pilots, flight crews, aircraft, or users of the Cowell's Heliport, you should consider listing it here.  To start the listing process, click on the button below
 
Add a business
 

Other Pages about Cowell's Heliport

Update a link
 
Copyright © AirNav, LLC. All rights reserved. Privacy Policy  Contact